Thomson Spirit — 9HA2336 — position and weather

sailwx.info

Track history (hours):
 
Tides and Currents Weather Stations Pressure Air Temp Water Temp Dewpoint Dewpoint Depression Visibility Wind Speed Wind Dir Waves Ship Positions

Thomson Spirit

Last reported at 2014-Oct-22 23:33 UTC. Time now 2014-Oct-24 09:36 UTC.
Position N 34°35' E 032°28'.

Length 214 m; draft 7.8 m.

Type: Passenger vessel. MMSI: 248368000.

Date/timePositionNaut miles runAvg speedWind from/ knotsBaromVisibWave heightAir tempDewpointWater temp
2014-Oct-22 23:33N 34°35' E 032°28'1414.1
2014-Oct-22 22:33N 34°32' E 032°44'1414.2
2014-Oct-22 21:34N 34°32' E 033°01'7 7.1
2014-Oct-22 20:31N 34°39' E 033°01'0 0.0
2014-Oct-22 19:31N 34°39' E 033°01'0 0.0
2014-Oct-22 18:31N 34°39' E 033°01'0 0.0
2014-Oct-22 17:31N 34°39' E 033°01'0 0.0
2014-Oct-22 16:31N 34°39' E 033°01'0 0.0
2014-Oct-22 15:31N 34°39' E 033°01'0 0.0
2014-Oct-22 14:31N 34°39' E 033°01'0 0.0
2014-Oct-22 13:31N 34°39' E 033°01'0 0.0
2014-Oct-22 12:31N 34°39' E 033°01'0 0.0
2014-Oct-22 11:31N 34°39' E 033°01'0 0.0
2014-Oct-22 10:31N 34°39' E 033°01'0 0.0
2014-Oct-22 09:32N 34°39' E 033°01'0 0.0
2014-Oct-22 08:32N 34°39' E 033°01'0 0.0
2014-Oct-22 07:32N 34°39' E 033°01'0 0.0
2014-Oct-22 06:32N 34°39' E 033°01'0 0.0
2014-Oct-22 05:32N 34°39' E 033°01'0 0.0
2014-Oct-22 04:32N 34°39' E 033°01'2 2.5
2014-Oct-22 03:33N 34°38' E 033°03'8 7.5
2014-Oct-22 02:33N 34°32' E 032°58'1010.3
2014-Oct-22 01:33N 34°34' E 032°46'1010.2
2014-Oct-22 00:33N 34°37' E 032°34'7 0.2
2014-Oct-20 20:22N 34°39' E 032°26'1315.8
2014-Oct-20 19:33N 34°36' E 032°41'1515.5
2014-Oct-20 18:33N 34°32' E 032°59'1414.4
2014-Oct-20 17:33N 34°37' E 033°15'1614.6
2014-Oct-20 16:29N 34°44' E 033°32'13 1.0
2014-Oct-20 03:12N 34°38' E 033°17'1015.8
2014-Oct-20 02:34N 34°34' E 033°06'1515.0
2014-Oct-20 01:33N 34°34' E 032°48'1615.6
2014-Oct-20 00:34N 34°39' E 032°30'289 5.7
2014-Oct-17 21:33N 36°56' E 027°17'1310.5
2014-Oct-17 20:21N 37°06' E 027°07'2310.4
2014-Oct-17 18:08N 37°29' E 027°03'710.3
2014-Oct-17 17:27N 37°36' E 026°60'10 8.3
2014-Oct-17 16:14N 37°44' E 027°07'21 1.4
2014-Oct-17 00:33N 37°53' E 026°43'7 7.0
2014-Oct-16 23:33N 37°53' E 026°34'8 7.9
2014-Oct-16 22:33N 37°53' E 026°24'10 8.8
2014-Oct-16 21:25N 37°51' E 026°11'6 7.0
2014-Oct-16 20:33N 37°50' E 026°04'9 6.7
2014-Oct-16 19:11N 37°49' E 025°52'4 6.7
2014-Oct-16 18:31N 37°46' E 025°48'7 7.2
2014-Oct-16 17:33N 37°41' E 025°41'7 7.3
2014-Oct-16 16:33N 37°37' E 025°34'7 7.2
2014-Oct-16 15:33N 37°34' E 025°26'7 7.0
2014-Oct-16 14:33N 37°31' E 025°18'3 2.7
2014-Oct-16 13:29N 37°28' E 025°19'0 0.0
2014-Oct-16 12:29N 37°28' E 025°19'0 0.0
2014-Oct-16 11:29N 37°28' E 025°19'0 0.0
2014-Oct-16 10:29N 37°28' E 025°19'0 0.0
2014-Oct-16 09:29N 37°28' E 025°19'0 0.0
2014-Oct-16 08:31N 37°28' E 025°19'0 0.0
2014-Oct-16 07:32N 37°28' E 025°19'0 0.0
2014-Oct-16 06:29N 37°28' E 025°19'0 0.0
2014-Oct-16 05:32N 37°28' E 025°19'0 0.0
2014-Oct-16 04:33N 37°28' E 025°19'6 6.1
2014-Oct-16 03:33N 37°29' E 025°12'8 8.2
2014-Oct-16 02:33N 37°31' E 025°02'9 8.6
2014-Oct-16 01:33N 37°32' E 024°51'8 8.4
2014-Oct-16 00:33N 37°32' E 024°40'8 8.1
2014-Oct-15 23:33N 37°31' E 024°30'11 8.4
2014-Oct-15 22:17N 37°30' E 024°17'6 8.6
2014-Oct-15 21:33N 37°31' E 024°09'9 9.0
2014-Oct-15 20:33N 37°35' E 023°59'9 8.7
2014-Oct-15 19:33N 37°38' E 023°48'8 7.8
2014-Oct-15 18:33N 37°43' E 023°41'9 8.6
2014-Oct-15 17:33N 37°51' E 023°36'6 5.8
2014-Oct-15 16:33N 37°56' E 023°38'0 0.0
2014-Oct-15 15:33N 37°56' E 023°38'0 0.0
2014-Oct-15 14:33N 37°56' E 023°38'0 0.0
2014-Oct-15 13:33N 37°56' E 023°38'0 0.0
2014-Oct-15 12:33N 37°56' E 023°38'0 0.0
2014-Oct-15 11:33N 37°56' E 023°38'0 0.0
2014-Oct-15 10:33N 37°56' E 023°38'0 0.0
2014-Oct-15 09:33N 37°56' E 023°38'0 0.0
2014-Oct-15 08:33N 37°56' E 023°38'0 0.0
2014-Oct-15 07:33N 37°56' E 023°38'0 0.0
2014-Oct-15 06:33N 37°56' E 023°38'0 0.0
2014-Oct-15 05:33N 37°56' E 023°38'0 0.0
2014-Oct-15 04:33N 37°56' E 023°38'3 3.0
2014-Oct-15 03:33N 37°53' E 023°38'10 9.8
2014-Oct-15 02:33N 37°45' E 023°43'9 9.2
2014-Oct-15 01:33N 37°38' E 023°52'4411.0
2014-Oct-14 21:33N 37°24' E 024°44'1110.5
2014-Oct-14 20:33N 37°19' E 024°56'1111.3
2014-Oct-14 19:33N 37°18' E 025°10'1111.0
2014-Oct-14 18:33N 37°17' E 025°24'1111.2
2014-Oct-14 17:33N 37°17' E 025°38'1111.0
2014-Oct-14 16:34N 37°18' E 025°52'1010.2
2014-Oct-14 15:33N 37°16' E 026°04'1010.3
2014-Oct-14 14:33N 37°06' E 026°07'10 9.5
2014-Oct-14 13:30N 36°57' E 026°13'10 9.6
2014-Oct-14 12:28N 36°50' E 026°21'  
Track history (hours):
 
Tides and Currents Weather Stations Pressure Air Temp Water Temp Dewpoint Dewpoint Depression Visibility Wind Speed Wind Dir Waves Ship Positions

Thomson Spirit

Last reported at 2014-Oct-22 23:33 UTC. Time now 2014-Oct-24 09:36 UTC.
Position N 34°35' E 032°28'.

Length 214 m; draft 7.8 m.

Type: Passenger vessel. MMSI: 248368000.

Date/timePositionNaut miles runAvg speedWind from/ knotsBaromVisibWave heightAir tempDewpointWater temp
2014-Oct-22 23:33N 34°35' E 032°28'1414.1
2014-Oct-22 22:33N 34°32' E 032°44'1414.2
2014-Oct-22 21:34N 34°32' E 033°01'7 7.1
2014-Oct-22 20:31N 34°39' E 033°01'0 0.0
2014-Oct-22 19:31N 34°39' E 033°01'0 0.0
2014-Oct-22 18:31N 34°39' E 033°01'0 0.0
2014-Oct-22 17:31N 34°39' E 033°01'0 0.0
2014-Oct-22 16:31N 34°39' E 033°01'0 0.0
2014-Oct-22 15:31N 34°39' E 033°01'0 0.0
2014-Oct-22 14:31N 34°39' E 033°01'0 0.0
2014-Oct-22 13:31N 34°39' E 033°01'0 0.0
2014-Oct-22 12:31N 34°39' E 033°01'0 0.0
2014-Oct-22 11:31N 34°39' E 033°01'0 0.0
2014-Oct-22 10:31N 34°39' E 033°01'0 0.0
2014-Oct-22 09:32N 34°39' E 033°01'0 0.0
2014-Oct-22 08:32N 34°39' E 033°01'0 0.0
2014-Oct-22 07:32N 34°39' E 033°01'0 0.0
2014-Oct-22 06:32N 34°39' E 033°01'0 0.0
2014-Oct-22 05:32N 34°39' E 033°01'0 0.0
2014-Oct-22 04:32N 34°39' E 033°01'2 2.5
2014-Oct-22 03:33N 34°38' E 033°03'8 7.5
2014-Oct-22 02:33N 34°32' E 032°58'1010.3
2014-Oct-22 01:33N 34°34' E 032°46'1010.2
2014-Oct-22 00:33N 34°37' E 032°34'7 0.2
2014-Oct-20 20:22N 34°39' E 032°26'1315.8
2014-Oct-20 19:33N 34°36' E 032°41'1515.5
2014-Oct-20 18:33N 34°32' E 032°59'1414.4
2014-Oct-20 17:33N 34°37' E 033°15'1614.6
2014-Oct-20 16:29N 34°44' E 033°32'13 1.0
2014-Oct-20 03:12N 34°38' E 033°17'1015.8
2014-Oct-20 02:34N 34°34' E 033°06'1515.0
2014-Oct-20 01:33N 34°34' E 032°48'1615.6
2014-Oct-20 00:34N 34°39' E 032°30'289 5.7
2014-Oct-17 21:33N 36°56' E 027°17'1310.5
2014-Oct-17 20:21N 37°06' E 027°07'2310.4
2014-Oct-17 18:08N 37°29' E 027°03'710.3
2014-Oct-17 17:27N 37°36' E 026°60'10 8.3
2014-Oct-17 16:14N 37°44' E 027°07'21 1.4
2014-Oct-17 00:33N 37°53' E 026°43'7 7.0
2014-Oct-16 23:33N 37°53' E 026°34'8 7.9
2014-Oct-16 22:33N 37°53' E 026°24'10 8.8
2014-Oct-16 21:25N 37°51' E 026°11'6 7.0
2014-Oct-16 20:33N 37°50' E 026°04'9 6.7
2014-Oct-16 19:11N 37°49' E 025°52'4 6.7
2014-Oct-16 18:31N 37°46' E 025°48'7 7.2
2014-Oct-16 17:33N 37°41' E 025°41'7 7.3
2014-Oct-16 16:33N 37°37' E 025°34'7 7.2
2014-Oct-16 15:33N 37°34' E 025°26'7 7.0
2014-Oct-16 14:33N 37°31' E 025°18'3 2.7
2014-Oct-16 13:29N 37°28' E 025°19'0 0.0
2014-Oct-16 12:29N 37°28' E 025°19'0 0.0
2014-Oct-16 11:29N 37°28' E 025°19'0 0.0
2014-Oct-16 10:29N 37°28' E 025°19'0 0.0
2014-Oct-16 09:29N 37°28' E 025°19'0 0.0
2014-Oct-16 08:31N 37°28' E 025°19'0 0.0
2014-Oct-16 07:32N 37°28' E 025°19'0 0.0
2014-Oct-16 06:29N 37°28' E 025°19'0 0.0
2014-Oct-16 05:32N 37°28' E 025°19'0 0.0
2014-Oct-16 04:33N 37°28' E 025°19'6 6.1
2014-Oct-16 03:33N 37°29' E 025°12'8 8.2
2014-Oct-16 02:33N 37°31' E 025°02'9 8.6
2014-Oct-16 01:33N 37°32' E 024°51'8 8.4
2014-Oct-16 00:33N 37°32' E 024°40'8 8.1
2014-Oct-15 23:33N 37°31' E 024°30'11 8.4
2014-Oct-15 22:17N 37°30' E 024°17'6 8.6
2014-Oct-15 21:33N 37°31' E 024°09'9 9.0
2014-Oct-15 20:33N 37°35' E 023°59'9 8.7
2014-Oct-15 19:33N 37°38' E 023°48'8 7.8
2014-Oct-15 18:33N 37°43' E 023°41'9 8.6
2014-Oct-15 17:33N 37°51' E 023°36'6 5.8
2014-Oct-15 16:33N 37°56' E 023°38'0 0.0
2014-Oct-15 15:33N 37°56' E 023°38'0 0.0
2014-Oct-15 14:33N 37°56' E 023°38'0 0.0
2014-Oct-15 13:33N 37°56' E 023°38'0 0.0
2014-Oct-15 12:33N 37°56' E 023°38'0 0.0
2014-Oct-15 11:33N 37°56' E 023°38'0 0.0
2014-Oct-15 10:33N 37°56' E 023°38'0 0.0
2014-Oct-15 09:33N 37°56' E 023°38'0 0.0
2014-Oct-15 08:33N 37°56' E 023°38'0 0.0
2014-Oct-15 07:33N 37°56' E 023°38'0 0.0
2014-Oct-15 06:33N 37°56' E 023°38'0 0.0
2014-Oct-15 05:33N 37°56' E 023°38'0 0.0
2014-Oct-15 04:33N 37°56' E 023°38'3 3.0
2014-Oct-15 03:33N 37°53' E 023°38'10 9.8
2014-Oct-15 02:33N 37°45' E 023°43'9 9.2
2014-Oct-15 01:33N 37°38' E 023°52'4411.0
2014-Oct-14 21:33N 37°24' E 024°44'1110.5
2014-Oct-14 20:33N 37°19' E 024°56'1111.3
2014-Oct-14 19:33N 37°18' E 025°10'1111.0
2014-Oct-14 18:33N 37°17' E 025°24'1111.2
2014-Oct-14 17:33N 37°17' E 025°38'1111.0
2014-Oct-14 16:34N 37°18' E 025°52'1010.2
2014-Oct-14 15:33N 37°16' E 026°04'1010.3
2014-Oct-14 14:33N 37°06' E 026°07'10 9.5
2014-Oct-14 13:30N 36°57' E 026°13'10 9.6
2014-Oct-14 12:28N 36°50' E 026°21'  

Dump ship's entire track history